Time;durP1;ratioP1;P1;durP2;ratioP2;P2;SDS_P1;SDS_P2;PMS_P1;PMS_P2;Temp;Humidity;BMP_temperature;BMP_pressure;BME280_temperature;BME280_humidity;BME280_pressure;Samples;Min_cycle;Max_cycle;Signal;HPM_P1;HPM_P2
2022/06/06 00:02:16;;;;;;;0.00;0.00;;;18.80;1.00;;;;;;5080657;28;20616;-69
2022/06/06 00:04:44;;;;;;;0.00;0.00;;;18.80;1.00;;;;;;5079504;28;20681;-67
2022/06/06 00:07:12;;;;;;;0.00;0.00;;;18.80;1.00;;;;;;5079934;28;20208;-68
2022/06/06 00:09:40;;;;;;;0.00;0.00;;;18.70;1.00;;;;;;5079930;28;20679;-69
2022/06/06 00:12:09;;;;;;;0.00;0.00;;;18.70;1.00;;;;;;5080251;28;20251;-68
2022/06/06 00:14:37;;;;;;;0.00;0.00;;;18.60;1.00;;;;;;5078046;28;20224;-69
2022/06/06 00:17:05;;;;;;;0.00;0.00;;;18.60;1.00;;;;;;5079547;28;20193;-68
2022/06/06 00:19:33;;;;;;;0.00;0.00;;;18.60;1.00;;;;;;5079359;28;20197;-69
2022/06/06 00:22:01;;;;;;;0.00;0.00;;;18.60;1.00;;;;;;5078979;28;20620;-68
2022/06/06 00:24:29;;;;;;;0.00;0.00;;;18.60;1.00;;;;;;5080482;28;20863;-68
2022/06/06 00:26:57;;;;;;;0.00;0.00;;;18.50;1.00;;;;;;5080626;28;20244;-68
2022/06/06 00:29:27;;;;;;;0.00;0.00;;;18.50;1.00;;;;;;5079852;28;20208;-68
2022/06/06 00:34:49;;;;;;;0.00;0.00;;;18.50;1.00;;;;;;5078978;28;20217;-68
2022/06/06 00:37:21;;;;;;;0.00;0.00;;;18.40;1.00;;;;;;5079818;28;20213;-69
2022/06/06 00:39:49;;;;;;;0.00;0.00;;;18.40;1.00;;;;;;5079612;28;20229;-69
2022/06/06 00:42:21;;;;;;;0.00;0.00;;;18.40;1.00;;;;;;5079951;28;20227;-69
2022/06/06 00:45:18;;;;;;;0.00;0.00;;;18.40;1.00;;;;;;5079812;28;20226;-69
2022/06/06 00:47:49;;;;;;;0.00;0.00;;;18.40;1.00;;;;;;5079569;28;20197;-68
2022/06/06 00:50:20;;;;;;;0.00;0.00;;;18.40;1.00;;;;;;5079636;28;20696;-68
2022/06/06 00:52:51;;;;;;;0.00;0.00;;;18.40;1.00;;;;;;5079905;28;20209;-68
2022/06/06 00:55:25;;;;;;;0.00;0.00;;;18.30;1.00;;;;;;5077857;28;20216;-68
2022/06/06 00:57:57;;;;;;;0.00;0.00;;;18.30;1.00;;;;;;5079204;28;20251;-68
2022/06/06 01:00:27;;;;;;;0.00;0.00;;;18.30;1.00;;;;;;5078340;28;20271;-68
2022/06/06 01:02:57;;;;;;;0.00;0.00;;;18.30;1.00;;;;;;5078124;28;20258;-68
2022/06/06 01:05:27;;;;;;;0.00;0.00;;;18.30;1.00;;;;;;5078229;28;20244;-68
2022/06/06 01:07:55;;;;;;;0.00;0.00;;;18.30;1.00;;;;;;5077481;28;20206;-68
2022/06/06 01:10:23;;;;;;;0.00;0.00;;;18.30;1.00;;;;;;5078713;28;20209;-68
2022/06/06 01:12:54;;;;;;;0.00;0.00;;;18.30;1.00;;;;;;5079542;28;20219;-68
2022/06/06 01:15:25;;;;;;;0.00;0.00;;;18.30;1.00;;;;;;5077897;28;20320;-68
2022/06/06 01:18:05;;;;;;;0.00;0.00;;;18.30;1.00;;;;;;5079455;28;20561;-68
2022/06/06 01:21:00;;;;;;;0.00;0.00;;;18.20;1.00;;;;;;5078360;28;20201;-68
2022/06/06 01:23:59;;;;;;;0.00;0.00;;;18.20;1.00;;;;;;5077552;28;20229;-68
2022/06/06 01:26:47;;;;;;;0.00;0.00;;;18.20;1.00;;;;;;5077479;28;20763;-68
2022/06/06 01:29:19;;;;;;;0.00;0.00;;;18.20;1.00;;;;;;5078841;28;20248;-71
2022/06/06 01:31:51;;;;;;;0.00;0.00;;;18.10;1.00;;;;;;5079610;28;20205;-71
2022/06/06 01:34:24;;;;;;;0.00;0.00;;;18.10;1.00;;;;;;5077907;28;20228;-69
2022/06/06 01:36:54;;;;;;;0.00;0.00;;;18.20;1.00;;;;;;5077944;28;20228;-69
2022/06/06 01:39:24;;;;;;;0.00;0.00;;;18.20;1.00;;;;;;5077357;28;20672;-70
2022/06/06 01:41:59;;;;;;;0.00;0.00;;;18.20;1.00;;;;;;5078371;28;20201;-69
2022/06/06 01:44:37;;;;;;;0.00;0.00;;;18.10;1.00;;;;;;5079341;28;20236;-69
2022/06/06 01:47:09;;;;;;;0.00;0.00;;;18.20;1.00;;;;;;5078174;28;20262;-69
2022/06/06 01:49:38;;;;;;;0.00;0.00;;;18.10;1.00;;;;;;5075420;28;20209;-69
2022/06/06 01:52:10;;;;;;;0.00;0.00;;;18.10;1.00;;;;;;5079458;28;20204;-68
2022/06/06 01:54:38;;;;;;;0.00;0.00;;;18.00;1.00;;;;;;5079299;28;20225;-69
2022/06/06 01:57:07;;;;;;;0.00;0.00;;;18.00;1.00;;;;;;5078056;28;20657;-69
2022/06/06 01:59:37;;;;;;;0.00;0.00;;;18.00;1.00;;;;;;5078231;28;20259;-68
2022/06/06 02:02:05;;;;;;;0.00;0.00;;;18.00;1.00;;;;;;5077338;28;20315;-68
2022/06/06 02:04:33;;;;;;;0.00;0.00;;;17.90;1.00;;;;;;5078710;28;20225;-70
2022/06/06 02:07:01;;;;;;;0.00;0.00;;;17.90;1.00;;;;;;5078526;28;20292;-69
2022/06/06 02:09:31;;;;;;;0.00;0.00;;;17.90;1.00;;;;;;5077160;28;20260;-69
2022/06/06 02:12:00;;;;;;;0.00;0.00;;;18.00;1.00;;;;;;5078498;28;20574;-69
2022/06/06 02:14:28;;;;;;;0.00;0.00;;;17.90;1.00;;;;;;5079925;28;20228;-69
2022/06/06 02:16:57;;;;;;;0.00;0.00;;;17.90;1.00;;;;;;5081012;28;20201;-69
2022/06/06 02:19:25;;;;;;;0.00;0.00;;;18.00;1.00;;;;;;5082493;28;20220;-69
2022/06/06 02:21:53;;;;;;;0.00;0.00;;;18.00;1.00;;;;;;5082673;28;20201;-69
2022/06/06 02:24:21;;;;;;;0.00;0.00;;;18.00;1.00;;;;;;5081213;28;20689;-68
2022/06/06 02:26:49;;;;;;;0.00;0.00;;;18.00;1.00;;;;;;5084078;28;20703;-68
2022/06/06 02:29:17;;;;;;;0.00;0.00;;;18.00;1.00;;;;;;5081040;28;20266;-68
2022/06/06 02:31:44;;;;;;;0.00;0.00;;;18.00;1.00;;;;;;5083932;28;20262;-68
2022/06/06 02:34:13;;;;;;;0.00;0.00;;;18.00;1.00;;;;;;5083243;28;20223;-68
2022/06/06 02:36:41;;;;;;;0.00;0.00;;;18.00;1.00;;;;;;5081397;28;20247;-68
2022/06/06 02:39:13;;;;;;;0.00;0.00;;;18.00;1.00;;;;;;5081032;28;20668;-68
2022/06/06 02:41:41;;;;;;;0.00;0.00;;;17.90;1.00;;;;;;5082155;28;20209;-68
2022/06/06 02:44:10;;;;;;;0.00;0.00;;;17.90;1.00;;;;;;5082603;28;20244;-68
2022/06/06 02:46:38;;;;;;;0.00;0.00;;;17.90;1.00;;;;;;5081640;28;20228;-67
2022/06/06 02:49:05;;;;;;;0.10;0.10;;;17.90;1.00;;;;;;5081672;28;20254;-68
2022/06/06 02:51:36;;;;;;;0.00;0.00;;;18.00;1.00;;;;;;5082585;28;20198;-68
2022/06/06 02:54:04;;;;;;;0.00;0.00;;;17.90;1.00;;;;;;5082636;28;20224;-68
2022/06/06 02:56:32;;;;;;;0.00;0.00;;;17.80;1.00;;;;;;5079718;28;20272;-68
2022/06/06 02:59:08;;;;;;;0.00;0.00;;;17.90;1.00;;;;;;5081883;28;20201;-68
2022/06/06 03:01:37;;;;;;;0.00;0.00;;;17.80;1.00;;;;;;5081756;28;20572;-68
2022/06/06 03:04:05;;;;;;;0.00;0.00;;;17.80;1.00;;;;;;5082722;28;20262;-68
2022/06/06 03:06:44;;;;;;;0.00;0.00;;;17.60;1.00;;;;;;5080374;28;20275;-67
2022/06/06 03:09:23;;;;;;;0.00;0.00;;;17.50;1.00;;;;;;5079514;28;20193;-68
2022/06/06 03:12:06;;;;;;;0.00;0.00;;;17.50;1.00;;;;;;5082748;28;20246;-69
2022/06/06 03:14:46;;;;;;;0.00;0.00;;;17.40;1.00;;;;;;5082673;28;20225;-69
2022/06/06 03:20:47;;;;;;;0.00;0.00;;;17.60;1.00;;;;;;5081065;28;20679;-69
2022/06/06 03:23:27;;;;;;;0.00;0.00;;;17.60;1.00;;;;;;5080564;28;20587;-69
2022/06/06 03:26:06;;;;;;;0.00;0.00;;;17.50;1.00;;;;;;5080339;28;20193;-68
2022/06/06 03:28:41;;;;;;;0.00;0.00;;;17.40;1.00;;;;;;5082255;28;20205;-68
2022/06/06 03:31:19;;;;;;;0.00;0.00;;;17.40;1.00;;;;;;5080681;28;20196;-69
2022/06/06 03:33:56;;;;;;;0.10;0.10;;;17.40;1.00;;;;;;5081115;28;20716;-69
2022/06/06 03:36:30;;;;;;;0.00;0.00;;;17.40;1.00;;;;;;5079509;28;20205;-70
2022/06/06 03:39:06;;;;;;;0.00;0.00;;;17.40;1.00;;;;;;5080580;28;20742;-70
2022/06/06 03:41:41;;;;;;;0.00;0.00;;;17.30;1.00;;;;;;5079617;28;20201;-69
2022/06/06 03:44:21;;;;;;;0.00;0.00;;;17.30;1.00;;;;;;5080275;28;20247;-69
2022/06/06 03:46:56;;;;;;;0.00;0.00;;;17.30;1.00;;;;;;5079468;28;20228;-70
2022/06/06 03:49:33;;;;;;;0.00;0.00;;;17.40;1.00;;;;;;5081713;28;20212;-70
2022/06/06 03:52:14;;;;;;;0.00;0.00;;;17.30;1.00;;;;;;5080573;28;20272;-69
2022/06/06 03:54:50;;;;;;;0.00;0.00;;;17.30;1.00;;;;;;5080863;28;20221;-69
2022/06/06 03:57:20;;;;;;;0.00;0.00;;;17.20;1.00;;;;;;5078924;28;20192;-69
2022/06/06 03:59:54;;;;;;;0.00;0.00;;;17.20;1.00;;;;;;5081401;28;20227;-68
2022/06/06 04:02:26;;;;;;;0.00;0.00;;;17.20;1.00;;;;;;5080631;28;20259;-69
2022/06/06 04:04:55;;;;;;;0.00;0.00;;;17.20;1.00;;;;;;5080545;28;20216;-69
2022/06/06 04:07:22;;;;;;;0.00;0.00;;;17.10;1.00;;;;;;5079391;28;20229;-69
2022/06/06 04:09:52;;;;;;;0.00;0.00;;;17.10;1.00;;;;;;5080681;28;20201;-69
2022/06/06 04:12:38;;;;;;;0.00;0.00;;;17.10;1.00;;;;;;5080037;28;20213;-69
2022/06/06 04:15:18;;;;;;;0.00;0.00;;;17.20;1.00;;;;;;5080944;28;20220;-69
2022/06/06 04:17:57;;;;;;;0.00;0.00;;;17.10;1.00;;;;;;5080799;28;20202;-69
2022/06/06 04:20:32;;;;;;;0.00;0.00;;;17.10;1.00;;;;;;5079839;28;20205;-69
2022/06/06 04:23:11;;;;;;;0.00;0.00;;;17.00;1.00;;;;;;5080004;28;20200;-69
2022/06/06 04:26:01;;;;;;;0.00;0.00;;;17.10;1.00;;;;;;5080677;28;20215;-69
2022/06/06 04:28:33;;;;;;;0.00;0.00;;;17.10;1.00;;;;;;5078487;28;20704;-69
2022/06/06 04:31:11;;;;;;;0.00;0.00;;;17.10;1.00;;;;;;5078899;28;20206;-70
2022/06/06 04:33:46;;;;;;;0.00;0.00;;;17.20;1.00;;;;;;5080587;28;20217;-69
2022/06/06 04:36:20;;;;;;;0.00;0.00;;;17.20;1.00;;;;;;5079280;28;20201;-69
2022/06/06 04:38:55;;;;;;;0.00;0.00;;;17.20;1.00;;;;;;5079039;28;20442;-69
2022/06/06 04:41:30;;;;;;;0.00;0.00;;;17.30;1.00;;;;;;5077500;28;20205;-70
2022/06/06 04:44:09;;;;;;;0.00;0.00;;;17.40;1.00;;;;;;5079005;28;20233;-70
2022/06/06 04:46:46;;;;;;;0.00;0.00;;;17.40;1.00;;;;;;5078189;28;20207;-69
2022/06/06 04:49:14;;;;;;;0.00;0.00;;;17.40;1.00;;;;;;5078901;28;20197;-69
2022/06/06 04:51:44;;;;;;;0.00;0.00;;;17.50;1.00;;;;;;5078739;28;20771;-70
2022/06/06 04:54:16;;;;;;;0.00;0.00;;;17.50;1.00;;;;;;5079403;28;20786;-70
2022/06/06 04:56:54;;;;;;;0.10;0.10;;;17.50;1.00;;;;;;5080165;28;20189;-69
2022/06/06 04:59:23;;;;;;;0.00;0.00;;;17.50;1.00;;;;;;5077901;28;20259;-70
2022/06/06 05:01:51;;;;;;;0.00;0.00;;;17.60;1.00;;;;;;5080238;28;20200;-70
2022/06/06 05:04:19;;;;;;;0.00;0.00;;;17.60;1.00;;;;;;5077734;28;20221;-70
2022/06/06 05:07:09;;;;;;;0.00;0.00;;;17.70;1.00;;;;;;5077330;28;20262;-69
2022/06/06 05:10:17;;;;;;;0.00;0.00;;;17.80;1.00;;;;;;5076704;28;20198;-69
2022/06/06 05:13:12;;;;;;;0.00;0.00;;;17.80;1.00;;;;;;5055011;28;20263;-69
2022/06/06 05:15:52;;;;;;;0.00;0.00;;;17.90;1.00;;;;;;5074159;28;20669;-69
2022/06/06 05:18:44;;;;;;;0.00;0.00;;;17.90;99.90;;;;;;5079212;28;20188;-69
2022/06/06 05:21:23;;;;;;;0.00;0.00;;;18.00;99.90;;;;;;5074124;28;20556;-68
2022/06/06 05:24:12;;;;;;;0.00;0.00;;;18.00;99.90;;;;;;5076936;28;20266;-69
2022/06/06 05:26:59;;;;;;;0.00;0.00;;;18.00;99.90;;;;;;5072954;28;20221;-69
2022/06/06 05:29:48;;;;;;;0.00;0.00;;;18.00;99.90;;;;;;5076726;28;20707;-69
2022/06/06 05:32:41;;;;;;;0.00;0.00;;;18.10;99.90;;;;;;5079128;28;20660;-69
2022/06/06 05:35:16;;;;;;;0.00;0.00;;;18.10;99.90;;;;;;5074723;28;20221;-69
2022/06/06 05:37:58;;;;;;;0.00;0.00;;;18.10;99.90;;;;;;5073737;28;20245;-69
2022/06/06 05:40:36;;;;;;;0.00;0.00;;;18.00;99.90;;;;;;5079131;28;20673;-69
2022/06/06 05:43:24;;;;;;;0.00;0.00;;;18.00;99.90;;;;;;5078455;28;20263;-69
2022/06/06 05:46:09;;;;;;;0.00;0.00;;;18.00;99.90;;;;;;5079694;28;20620;-69
2022/06/06 05:48:51;;;;;;;0.00;0.00;;;18.10;99.90;;;;;;5078008;28;20221;-69
2022/06/06 05:51:29;;;;;;;0.00;0.00;;;18.20;99.90;;;;;;5080960;28;20693;-69
2022/06/06 05:54:16;;;;;;;0.00;0.00;;;18.20;99.90;;;;;;5082809;28;20216;-69
2022/06/06 05:57:09;;;;;;;0.00;0.00;;;18.30;99.90;;;;;;5081711;28;20201;-69
2022/06/06 05:59:57;;;;;;;0.00;0.00;;;18.40;99.90;;;;;;5083511;28;20595;-69
2022/06/06 06:02:37;;;;;;;0.00;0.00;;;18.40;99.90;;;;;;5080928;28;20209;-69
2022/06/06 06:05:16;;;;;;;0.00;0.00;;;18.40;99.90;;;;;;5082752;28;20633;-69
2022/06/06 06:07:55;;;;;;;0.00;0.00;;;18.50;99.90;;;;;;5079203;28;20220;-69
2022/06/06 06:10:29;;;;;;;0.00;0.00;;;18.50;99.90;;;;;;5082046;28;20807;-69
2022/06/06 06:13:36;;;;;;;0.00;0.00;;;18.50;99.90;;;;;;5082384;28;20201;-69
2022/06/06 06:16:05;;;;;;;0.00;0.00;;;18.50;99.90;;;;;;5079992;28;20282;-69
2022/06/06 06:18:39;;;;;;;0.00;0.00;;;18.50;99.90;;;;;;5082829;28;20284;-69
2022/06/06 06:21:13;;;;;;;0.00;0.00;;;18.50;99.90;;;;;;5081776;28;20619;-69
2022/06/06 06:23:43;;;;;;;0.00;0.00;;;18.40;99.90;;;;;;5082002;28;20304;-69
2022/06/06 06:26:12;;;;;;;0.00;0.00;;;18.40;58.00;;;;;;5080660;28;20202;-69
2022/06/06 06:28:43;;;;;;;0.00;0.00;;;18.40;75.10;;;;;;5079193;28;20225;-69
2022/06/06 06:31:26;;;;;;;0.00;0.00;;;18.40;1.00;;;;;;5081190;28;20669;-69
2022/06/06 06:34:12;;;;;;;0.00;0.00;;;18.40;5.20;;;;;;5079455;28;20259;-69
2022/06/06 06:36:45;;;;;;;0.00;0.00;;;18.40;45.00;;;;;;5080639;28;20260;-69
2022/06/06 06:39:37;;;;;;;0.00;0.00;;;18.50;1.00;;;;;;5079152;28;20198;-69
2022/06/06 06:42:27;;;;;;;0.00;0.00;;;18.50;1.00;;;;;;5080554;28;20204;-69
2022/06/06 06:45:00;;;;;;;0.00;0.00;;;18.50;1.00;;;;;;5082208;28;20233;-69
2022/06/06 06:47:31;;;;;;;0.00;0.00;;;18.50;1.00;;;;;;5082257;28;20238;-69
2022/06/06 06:50:10;;;;;;;0.00;0.00;;;18.60;1.00;;;;;;5082007;28;20204;-69
2022/06/06 06:52:51;;;;;;;0.00;0.00;;;18.70;1.00;;;;;;5081351;28;20209;-69
2022/06/06 06:55:28;;;;;;;0.00;0.00;;;18.80;1.00;;;;;;5082531;28;20263;-69
2022/06/06 06:58:26;;;;;;;0.00;0.00;;;18.80;1.00;;;;;;5080280;28;20254;-69
2022/06/06 07:01:00;;;;;;;0.00;0.00;;;19.00;1.00;;;;;;5083023;28;20775;-69
2022/06/06 07:09:38;;;;;;;0.00;0.00;;;19.30;1.00;;;;;;5084380;28;20229;-69
2022/06/06 07:12:19;;;;;;;0.00;0.00;;;19.30;99.90;;;;;;5082750;28;20288;-69
2022/06/06 07:15:07;;;;;;;0.00;0.00;;;19.40;10.60;;;;;;5084062;28;20221;-69
2022/06/06 07:17:43;;;;;;;0.00;0.00;;;19.30;1.00;;;;;;5082675;28;20205;-69
2022/06/06 07:20:14;;;;;;;0.00;0.00;;;19.50;1.00;;;;;;5082871;28;20204;-68
2022/06/06 07:23:02;;;;;;;0.00;0.00;;;19.60;1.00;;;;;;5081545;28;20194;-68
2022/06/06 07:25:34;;;;;;;0.00;0.00;;;19.80;99.90;;;;;;5082277;28;20213;-68
2022/06/06 07:28:01;;;;;;;0.00;0.00;;;19.90;99.90;;;;;;5080297;28;20677;-69
2022/06/06 07:30:33;;;;;;;0.00;0.00;;;20.00;1.00;;;;;;5082498;28;21105;-69
2022/06/06 07:33:14;;;;;;;0.00;0.00;;;19.90;1.00;;;;;;5081275;28;20202;-69
2022/06/06 07:35:52;;;;;;;0.00;0.00;;;20.00;1.00;;;;;;5081175;28;20185;-69
2022/06/06 07:38:34;;;;;;;0.00;0.00;;;20.20;1.00;;;;;;5081074;28;20292;-69
2022/06/06 07:41:16;;;;;;;0.00;0.00;;;20.10;1.00;;;;;;5081301;28;20197;-69
2022/06/06 07:44:11;;;;;;;0.00;0.00;;;20.30;1.00;;;;;;5081428;28;20224;-69
2022/06/06 07:46:52;;;;;;;0.00;0.00;;;20.20;99.90;;;;;;5079781;28;20255;-69
2022/06/06 07:49:23;;;;;;;0.00;0.00;;;20.20;99.90;;;;;;5080933;28;20229;-69
2022/06/06 07:51:58;;;;;;;0.00;0.00;;;20.30;99.90;;;;;;5079416;28;20198;-69
2022/06/06 07:54:44;;;;;;;0.00;0.00;;;20.60;1.00;;;;;;5080665;28;20213;-69
2022/06/06 07:57:19;;;;;;;0.00;0.00;;;20.80;1.00;;;;;;5081681;28;20742;-69
2022/06/06 07:59:55;;;;;;;0.00;0.00;;;20.80;99.90;;;;;;5080798;28;20585;-69
2022/06/06 08:02:44;;;;;;;0.00;0.00;;;20.90;99.90;;;;;;5081616;28;20684;-69
2022/06/06 08:05:42;;;;;;;0.00;0.00;;;21.10;1.00;;;;;;5081427;28;20218;-69
2022/06/06 08:08:22;;;;;;;0.00;0.00;;;21.30;1.00;;;;;;5078852;28;20201;-69
2022/06/06 08:10:51;;;;;;;0.00;0.00;;;21.40;99.90;;;;;;5079465;28;20200;-69
2022/06/06 08:13:31;;;;;;;0.00;0.00;;;21.40;99.90;;;;;;5080356;28;20308;-69
2022/06/06 08:16:11;;;;;;;0.00;0.00;;;21.30;1.00;;;;;;5081284;28;20202;-69
2022/06/06 08:19:01;;;;;;;0.00;0.00;;;21.40;99.90;;;;;;5080952;28;20238;-69
2022/06/06 08:21:33;;;;;;;0.00;0.00;;;21.70;27.70;;;;;;5080381;28;20275;-69
2022/06/06 08:24:05;;;;;;;0.00;0.00;;;21.80;1.00;;;;;;5081777;28;20225;-69
2022/06/06 08:26:56;;;;;;;0.00;0.00;;;21.80;1.00;;;;;;5080596;28;20669;-69
2022/06/06 08:29:24;;;;;;;0.00;0.00;;;21.70;1.00;;;;;;5080211;28;20217;-68
2022/06/06 08:31:51;;;;;;;0.00;0.00;;;21.80;1.00;;;;;;5079488;28;20201;-69
2022/06/06 08:34:19;;;;;;;0.00;0.00;;;21.80;1.00;;;;;;5080634;28;20213;-68
2022/06/06 08:37:13;;;;;;;0.00;0.00;;;22.10;99.90;;;;;;5079731;28;20193;-68
2022/06/06 08:39:55;;;;;;;0.00;0.00;;;22.30;99.90;;;;;;5079884;28;20202;-69
2022/06/06 08:42:34;;;;;;;0.00;0.00;;;22.10;99.90;;;;;;5078562;28;20650;-69
2022/06/06 08:45:25;;;;;;;0.00;0.00;;;21.90;99.90;;;;;;5077979;28;20228;-69
2022/06/06 08:48:02;;;;;;;0.00;0.00;;;21.80;99.90;;;;;;5078345;28;20347;-69
2022/06/06 08:50:46;;;;;;;0.00;0.00;;;21.80;99.90;;;;;;5080201;28;20224;-69
2022/06/06 08:53:52;;;;;;;0.00;0.00;;;22.30;1.00;;;;;;5078472;28;20197;-69
2022/06/06 08:56:52;;;;;;;0.00;0.00;;;22.40;99.90;;;;;;5079031;28;20247;-69
2022/06/06 09:00:02;;;;;;;0.00;0.00;;;21.90;1.00;;;;;;5080168;28;20197;-69
2022/06/06 09:03:08;;;;;;;0.00;0.00;;;21.60;1.00;;;;;;5077003;28;21722;-69
2022/06/06 09:05:58;;;;;;;0.00;0.00;;;21.70;1.00;;;;;;5079967;28;20554;-68
2022/06/06 09:09:15;;;;;;;0.00;0.00;;;21.70;1.00;;;;;;5079505;28;20209;-68
2022/06/06 09:12:11;;;;;;;0.00;0.00;;;21.60;1.00;;;;;;5079860;28;20197;-68
2022/06/06 09:15:12;;;;;;;0.00;0.00;;;21.40;1.00;;;;;;5079468;28;20699;-69
2022/06/06 09:18:06;;;;;;;0.00;0.00;;;21.70;99.90;;;;;;5079430;28;20668;-68
2022/06/06 09:21:05;;;;;;;0.00;0.00;;;22.10;99.90;;;;;;5079686;28;20197;-68
2022/06/06 09:24:08;;;;;;;0.00;0.00;;;22.40;99.90;;;;;;5077697;28;20278;-68
2022/06/06 09:26:45;;;;;;;0.00;0.00;;;22.90;99.90;;;;;;5080272;28;20201;-70
2022/06/06 09:29:39;;;;;;;0.00;0.00;;;23.30;99.90;;;;;;5079481;28;20209;-70
2022/06/06 09:32:54;;;;;;;0.00;0.00;;;23.30;99.90;;;;;;5078396;28;20240;-68
2022/06/06 09:35:41;;;;;;;0.00;0.00;;;23.30;99.90;;;;;;5079117;28;20632;-68
2022/06/06 09:38:25;;;;;;;0.00;0.00;;;23.40;99.90;;;;;;5078456;28;20224;-68
2022/06/06 09:41:10;;;;;;;0.00;0.00;;;23.20;99.90;;;;;;5080396;28;20208;-68
2022/06/06 09:43:55;;;;;;;0.00;0.00;;;23.60;99.90;;;;;;5078380;28;20225;-68
2022/06/06 09:47:00;;;;;;;0.00;0.00;;;23.60;99.90;;;;;;5080600;28;20205;-70
2022/06/06 09:49:55;;;;;;;0.00;0.00;;;23.60;98.10;;;;;;5068941;28;20229;-70
2022/06/06 09:52:57;;;;;;;0.00;0.00;;;23.80;88.10;;;;;;5077214;28;20210;-67
2022/06/06 09:59:03;;;;;;;0.00;0.00;;;24.10;54.40;;;;;;5078362;28;20224;-68
2022/06/06 10:01:55;;;;;;;0.00;0.00;;;24.10;55.20;;;;;;5078991;28;20232;-67
2022/06/06 10:04:53;;;;;;;0.00;0.00;;;24.10;33.60;;;;;;5079535;28;20249;-68
2022/06/06 10:08:22;;;;;;;0.00;0.00;;;24.20;31.40;;;;;;5078980;28;20221;-68
2022/06/06 10:11:22;;;;;;;0.00;0.00;;;24.80;17.10;;;;;;5079561;28;20612;-70
2022/06/06 10:14:03;;;;;;;0.00;0.00;;;24.80;12.20;;;;;;5063642;28;20239;-68
2022/06/06 10:17:00;;;;;;;0.00;0.00;;;24.80;9.10;;;;;;5078989;28;20211;-68
2022/06/06 10:19:46;;;;;;;0.00;0.00;;;24.80;1.50;;;;;;5079691;28;20201;-68
2022/06/06 10:22:35;;;;;;;0.00;0.00;;;25.10;1.00;;;;;;5079667;28;20255;-68
2022/06/06 10:25:26;;;;;;;0.00;0.00;;;25.10;1.00;;;;;;5079397;28;20217;-68
2022/06/06 10:28:20;;;;;;;0.00;0.00;;;25.50;1.00;;;;;;5077834;28;20216;-67
2022/06/06 10:31:01;;;;;;;0.00;0.00;;;25.10;1.00;;;;;;5078420;28;20273;-69
2022/06/06 10:33:57;;;;;;;0.00;0.00;;;25.50;1.00;;;;;;5077533;28;20712;-68
2022/06/06 10:36:46;;;;;;;0.00;0.00;;;25.00;1.00;;;;;;5081248;28;20217;-70
2022/06/06 10:39:38;;;;;;;0.00;0.00;;;24.70;1.00;;;;;;5082254;28;20258;-69
2022/06/06 10:42:35;;;;;;;0.00;0.00;;;24.60;1.00;;;;;;5082511;28;20185;-69
2022/06/06 10:45:16;;;;;;;0.00;0.00;;;24.90;1.00;;;;;;5082807;28;20275;-69
2022/06/06 10:48:08;;;;;;;0.00;0.00;;;25.00;1.00;;;;;;5081558;28;20668;-68
2022/06/06 10:53:53;;;;;;;0.00;0.00;;;24.80;1.00;;;;;;5080863;28;20704;-68
2022/06/06 10:56:45;;;;;;;0.00;0.00;;;25.00;1.00;;;;;;5082342;28;20197;-68
2022/06/06 10:59:53;;;;;;;0.00;0.00;;;25.20;1.00;;;;;;5081809;28;20193;-70
2022/06/06 11:03:04;;;;;;;0.00;0.00;;;25.00;1.00;;;;;;5080501;28;20200;-69
2022/06/06 11:05:56;;;;;;;0.00;0.00;;;24.60;1.00;;;;;;5082000;28;20288;-68
2022/06/06 11:08:58;;;;;;;0.00;0.00;;;24.80;1.00;;;;;;5079888;28;20296;-68
2022/06/06 11:12:03;;;;;;;0.00;0.00;;;24.80;1.00;;;;;;5081118;28;20224;-68
2022/06/06 11:14:35;;;;;;;0.00;0.00;;;24.10;11.00;;;;;;5082878;28;20290;-68
2022/06/06 11:17:32;;;;;;;0.00;0.00;;;24.20;4.50;;;;;;5080849;28;20201;-69
2022/06/06 11:20:41;;;;;;;0.00;0.00;;;24.30;1.00;;;;;;5082193;28;20220;-69
2022/06/06 11:23:33;;;;;;;0.00;0.00;;;24.20;1.00;;;;;;5081072;28;20229;-69
2022/06/06 11:26:14;;;;;;;0.00;0.00;;;24.00;1.00;;;;;;5081858;28;20617;-69
2022/06/06 11:29:01;;;;;;;0.00;0.00;;;24.00;1.00;;;;;;5084341;28;20204;-69
2022/06/06 11:31:49;;;;;;;0.00;0.00;;;24.30;1.00;;;;;;5084001;28;20277;-68
2022/06/06 11:34:46;;;;;;;0.00;0.00;;;24.30;1.00;;;;;;5081959;28;20578;-69
2022/06/06 11:37:39;;;;;;;0.00;0.00;;;24.10;1.00;;;;;;5049035;28;20213;-69
2022/06/06 11:40:36;;;;;;;0.00;0.00;;;24.10;5.10;;;;;;5081055;28;20406;-69
2022/06/06 11:43:37;;;;;;;0.00;0.00;;;24.00;6.60;;;;;;5080614;28;20205;-68
2022/06/06 11:46:23;;;;;;;0.00;0.00;;;24.00;8.60;;;;;;5079836;28;20201;-68
2022/06/06 11:49:31;;;;;;;0.00;0.00;;;24.00;8.70;;;;;;5080095;28;20216;-69
2022/06/06 11:52:29;;;;;;;0.00;0.00;;;24.10;12.40;;;;;;5080323;28;20629;-69
2022/06/06 11:55:30;;;;;;;0.00;0.00;;;24.10;10.50;;;;;;5083802;28;20717;-69
2022/06/06 11:58:31;;;;;;;0.00;0.00;;;24.40;5.10;;;;;;5080529;28;20213;-69
2022/06/06 12:01:27;;;;;;;0.00;0.00;;;24.60;1.00;;;;;;5080830;28;20314;-69
2022/06/06 12:04:14;;;;;;;0.00;0.00;;;24.70;1.00;;;;;;5080057;28;20629;-69
2022/06/06 12:07:23;;;;;;;0.00;0.00;;;24.70;1.00;;;;;;5082499;28;20281;-68
2022/06/06 12:09:58;;;;;;;0.00;0.00;;;25.20;1.00;;;;;;5087174;28;20529;-69
2022/06/06 12:12:56;;;;;;;0.00;0.00;;;25.20;1.00;;;;;;5084453;28;20619;-68
2022/06/06 12:15:52;;;;;;;0.00;0.00;;;25.20;1.00;;;;;;5084143;28;20642;-69
2022/06/06 12:18:44;;;;;;;0.00;0.00;;;25.40;1.00;;;;;;5083583;28;20675;-69
2022/06/06 12:21:56;;;;;;;0.00;0.00;;;25.90;1.00;;;;;;5082927;28;20193;-71
2022/06/06 12:24:52;;;;;;;0.00;0.00;;;25.80;1.00;;;;;;5043877;28;20237;-69
2022/06/06 12:27:26;;;;;;;0.00;0.00;;;25.30;1.00;;;;;;5080110;28;20205;-69
2022/06/06 12:30:15;;;;;;;0.00;0.00;;;25.10;1.00;;;;;;5081446;28;20389;-68
2022/06/06 12:33:01;;;;;;;0.00;0.00;;;25.10;1.00;;;;;;5085282;28;20232;-68
2022/06/06 12:35:40;;;;;;;0.00;0.00;;;25.10;1.00;;;;;;5078742;28;20610;-68
2022/06/06 12:38:31;;;;;;;0.00;0.00;;;25.30;1.00;;;;;;5081435;28;20198;-68
2022/06/06 12:41:12;;;;;;;0.00;0.00;;;25.60;1.00;;;;;;5080237;28;20267;-68
2022/06/06 12:43:54;;;;;;;0.00;0.00;;;25.50;1.00;;;;;;5081141;28;20277;-68
2022/06/06 12:46:47;;;;;;;0.00;0.00;;;25.60;1.00;;;;;;5079153;28;20662;-69
2022/06/06 12:49:55;;;;;;;0.00;0.00;;;25.10;1.00;;;;;;5077661;28;20669;-69
2022/06/06 12:53:08;;;;;;;0.00;0.00;;;25.00;1.00;;;;;;5038224;28;20239;-68
2022/06/06 12:55:59;;;;;;;0.00;0.00;;;25.00;1.00;;;;;;5001535;28;20274;-68
2022/06/06 12:58:39;;;;;;;0.00;0.00;;;24.90;1.00;;;;;;5079568;28;20271;-68
2022/06/06 13:04:17;;;;;;;0.00;0.00;;;24.70;1.00;;;;;;5083525;28;20221;-68
2022/06/06 13:06:57;;;;;;;0.00;0.00;;;24.80;1.00;;;;;;5083254;28;20205;-69
2022/06/06 13:09:41;;;;;;;0.00;0.00;;;24.90;1.00;;;;;;5079788;28;20549;-69
2022/06/06 13:12:26;;;;;;;0.00;0.00;;;24.90;1.00;;;;;;5078406;28;20234;-70
2022/06/06 13:15:12;;;;;;;0.00;0.00;;;24.70;1.00;;;;;;5079171;28;20251;-68
2022/06/06 13:17:54;;;;;;;0.00;0.00;;;24.50;1.00;;;;;;5078987;28;20672;-69
2022/06/06 13:20:32;;;;;;;0.00;0.00;;;24.80;1.00;;;;;;5079077;28;20266;-69
2022/06/06 13:23:13;;;;;;;0.00;0.00;;;25.10;1.00;;;;;;5079134;28;20205;-69
2022/06/06 13:25:58;;;;;;;0.00;0.00;;;25.10;1.00;;;;;;5079354;28;20193;-68
2022/06/06 13:28:28;;;;;;;0.00;0.00;;;25.00;1.00;;;;;;5076946;28;20206;-68
2022/06/06 13:31:21;;;;;;;0.00;0.00;;;24.80;1.00;;;;;;5079802;28;20736;-69
2022/06/06 13:34:01;;;;;;;0.00;0.00;;;24.70;1.00;;;;;;5078185;28;20231;-68
2022/06/06 13:36:45;;;;;;;0.00;0.00;;;24.70;1.00;;;;;;5078435;28;20212;-69
2022/06/06 13:39:26;;;;;;;0.00;0.00;;;24.70;1.00;;;;;;5077422;28;20197;-69
2022/06/06 13:42:07;;;;;;;0.00;0.00;;;24.60;1.00;;;;;;5080111;28;20663;-68
2022/06/06 13:45:04;;;;;;;0.00;0.00;;;24.70;1.00;;;;;;5078321;28;20735;-69
2022/06/06 13:47:50;;;;;;;0.00;0.00;;;24.60;1.00;;;;;;5075059;28;20221;-69
2022/06/06 13:50:25;;;;;;;0.00;0.00;;;24.40;1.00;;;;;;5078001;28;20590;-69
2022/06/06 13:53:10;;;;;;;0.00;0.00;;;24.70;1.00;;;;;;5079407;28;20221;-69
2022/06/06 13:55:40;;;;;;;0.00;0.00;;;25.00;1.00;;;;;;5079145;28;20239;-69
2022/06/06 13:58:34;;;;;;;0.00;0.00;;;24.80;1.00;;;;;;5079458;28;20246;-69
2022/06/06 14:01:19;;;;;;;0.00;0.00;;;24.80;1.00;;;;;;5078441;28;20202;-69
2022/06/06 14:04:05;;;;;;;0.00;0.00;;;24.50;1.00;;;;;;5076928;28;20217;-68
2022/06/06 14:06:54;;;;;;;0.00;0.00;;;24.40;1.00;;;;;;5079124;28;20201;-70
2022/06/06 14:09:37;;;;;;;0.00;0.00;;;24.30;1.00;;;;;;5077612;28;20239;-70
2022/06/06 14:12:21;;;;;;;0.00;0.00;;;24.40;1.00;;;;;;5081955;28;20228;-69
2022/06/06 14:14:52;;;;;;;0.00;0.00;;;24.40;1.00;;;;;;5082604;28;20270;-68
2022/06/06 14:17:26;;;;;;;0.00;0.00;;;23.90;1.00;;;;;;5080929;28;20209;-69
2022/06/06 14:20:06;;;;;;;0.00;0.00;;;23.80;1.00;;;;;;5083247;28;20210;-69
2022/06/06 14:22:36;;;;;;;0.00;0.00;;;23.90;1.00;;;;;;5082657;28;20764;-69
2022/06/06 14:25:07;;;;;;;0.00;0.00;;;24.20;1.00;;;;;;5081775;28;20584;-69
2022/06/06 14:27:36;;;;;;;0.00;0.00;;;24.10;1.00;;;;;;5083015;28;20206;-69
2022/06/06 14:30:11;;;;;;;0.00;0.00;;;24.00;1.00;;;;;;5083553;28;20209;-69
2022/06/06 14:32:55;;;;;;;0.00;0.00;;;24.10;1.00;;;;;;5080321;28;20222;-69